Time,TemperatureF,DewpointF,PressureIn,WindDirection,WindDirectionDegrees,WindSpeedMPH,WindSpeedGustMPH,Humidity,HourlyPrecipIn,Conditions,Clouds,dailyrainin,SoftwareType,DateUTC
2013-06-01 00:00:00,78.1,69.9,30.08,SSW,205,5.0,13.0,76,0.00,,---,0.00,VWS V14.01,2013-06-01 05:00:00,
2013-06-01 00:01:00,78.1,69.9,30.08,SSW,196,5.0,10.0,76,0.00,,---,0.00,VWS V14.01,2013-06-01 05:01:00,
2013-06-01 00:06:00,78.1,69.9,30.08,SSW,194,10.0,13.0,76,0.00,,---,0.00,VWS V14.01,2013-06-01 05:06:00,
2013-06-01 00:10:00,78.3,70.1,30.08,South,188,3.0,13.0,76,0.00,,---,0.00,VWS V14.01,2013-06-01 05:10:00,
2013-06-01 00:11:00,78.3,70.1,30.08,South,188,5.0,6.0,76,0.00,,---,0.00,VWS V14.01,2013-06-01 05:11:00,
2013-06-01 00:16:00,78.3,70.1,30.08,SW,216,4.0,10.0,76,0.00,,---,0.00,VWS V14.01,2013-06-01 05:16:00,
2013-06-01 00:20:00,78.3,70.1,30.08,SW,227,6.0,10.0,76,0.00,,---,0.00,VWS V14.01,2013-06-01 05:20:00,
2013-06-01 00:21:00,78.3,70.1,30.08,SSW,213,1.0,8.0,76,0.00,,---,0.00,VWS V14.01,2013-06-01 05:21:00,
2013-06-01 00:26:00,78.1,69.9,30.08,SSW,192,4.0,10.0,76,0.00,,---,0.00,VWS V14.01,2013-06-01 05:26:00,
2013-06-01 00:30:00,78.1,69.9,30.08,SSW,207,4.0,10.0,76,0.00,,---,0.00,VWS V14.01,2013-06-01 05:30:00,
2013-06-01 00:31:00,78.1,69.9,30.08,SSW,207,3.0,4.0,76,0.00,,---,0.00,VWS V14.01,2013-06-01 05:31:00,
2013-06-01 00:36:00,78.1,69.9,30.08,SW,226,3.0,6.0,76,0.00,,---,0.00,VWS V14.01,2013-06-01 05:36:00,
2013-06-01 00:40:00,78.1,70.3,30.08,SW,217,2.0,7.0,77,0.00,,---,0.00,VWS V14.01,2013-06-01 05:40:00,
2013-06-01 00:41:00,78.1,70.3,30.08,SW,217,2.0,4.0,77,0.00,,---,0.00,VWS V14.01,2013-06-01 05:41:00,
2013-06-01 00:46:00,78.1,70.3,30.07,SW,217,3.0,7.0,77,0.00,,---,0.00,VWS V14.01,2013-06-01 05:46:00,
2013-06-01 00:50:00,78.1,70.3,30.07,SW,217,4.0,10.0,77,0.00,,---,0.00,VWS V14.01,2013-06-01 05:50:00,
2013-06-01 00:51:00,78.1,70.3,30.07,SW,217,6.0,6.0,77,0.00,,---,0.00,VWS V14.01,2013-06-01 05:51:00,
2013-06-01 00:56:00,77.9,70.1,30.07,SW,223,5.0,7.0,77,0.00,,---,0.00,VWS V14.01,2013-06-01 05:56:00,
2013-06-01 01:00:00,77.9,70.1,30.08,SW,222,3.0,7.0,77,0.00,,---,0.00,VWS V14.01,2013-06-01 06:00:00,
2013-06-01 01:01:00,77.9,70.1,30.08,SSW,209,2.0,7.0,77,0.00,,---,0.00,VWS V14.01,2013-06-01 06:01:00,
2013-06-01 01:06:00,77.9,70.5,30.08,SSW,192,9.0,11.0,78,0.00,,---,0.00,VWS V14.01,2013-06-01 06:06:00,
2013-06-01 01:10:00,77.9,70.5,30.08,SSW,203,4.0,12.0,78,0.00,,---,0.00,VWS V14.01,2013-06-01 06:10:00,
2013-06-01 01:11:00,77.7,70.3,30.08,SSW,199,11.0,11.0,78,0.00,,---,0.00,VWS V14.01,2013-06-01 06:11:00,
2013-06-01 01:16:00,77.6,70.6,30.04,South,187,10.0,13.0,79,0.00,,---,0.00,VWS V14.01,2013-06-01 06:16:00,
2013-06-01 01:20:00,77.6,70.6,30.04,SSW,211,9.0,14.0,79,0.00,,---,0.00,VWS V14.01,2013-06-01 06:20:00,
2013-06-01 01:21:00,77.4,70.4,30.04,SSW,209,7.0,9.0,79,0.00,,---,0.00,VWS V14.01,2013-06-01 06:21:00,
2013-06-01 01:26:00,77.4,70.8,30.04,WSW,244,4.0,16.0,80,0.00,,---,0.00,VWS V14.01,2013-06-01 06:26:00,
2013-06-01 01:30:00,77.2,70.9,30.04,SW,216,4.0,16.0,81,0.00,,---,0.00,VWS V14.01,2013-06-01 06:30:00,
2013-06-01 01:31:00,77.2,70.9,30.04,SW,229,9.0,11.0,81,0.00,,---,0.00,VWS V14.01,2013-06-01 06:31:00,
2013-06-01 01:36:00,77.2,70.9,30.04,SW,230,12.0,14.0,81,0.00,,---,0.00,VWS V14.01,2013-06-01 06:36:00,
2013-06-01 01:40:00,77.0,70.7,30.04,SSW,205,7.0,14.0,81,0.00,,---,0.00,VWS V14.01,2013-06-01 06:40:00,
2013-06-01 01:41:00,77.0,70.7,30.04,West,262,10.0,13.0,81,0.00,,---,0.00,VWS V14.01,2013-06-01 06:41:00,
2013-06-01 01:46:00,76.0,67.9,30.09,SW,225,15.0,32.0,76,0.00,,---,0.00,VWS V14.01,2013-06-01 06:46:00,
2013-06-01 01:50:00,74.7,66.3,30.09,SSW,205,17.0,33.0,75,0.00,,---,0.00,VWS V14.01,2013-06-01 06:50:00,
2013-06-01 01:51:00,74.6,66.2,30.09,SSW,196,15.0,19.0,75,0.00,,---,0.00,VWS V14.01,2013-06-01 06:51:00,
2013-06-01 01:56:00,73.7,65.7,30.09,SSW,204,9.0,23.0,76,0.00,,---,0.00,VWS V14.01,2013-06-01 06:56:00,
2013-06-01 02:00:00,72.8,65.2,30.07,SW,225,14.0,23.0,77,0.00,,---,0.00,VWS V14.01,2013-06-01 07:00:00,
2013-06-01 02:10:00,71.3,64.5,30.07,SSW,202,12.0,25.0,79,0.00,,---,0.00,VWS V14.01,2013-06-01 07:10:00,
2013-06-01 02:20:00,70.4,61.7,30.06,SSW,202,10.0,23.0,74,0.00,,---,0.00,VWS V14.01,2013-06-01 07:20:00,
2013-06-01 02:30:00,70.9,61.0,30.04,South,180,7.0,22.0,71,0.01,,---,0.01,VWS V14.01,2013-06-01 07:30:00,
2013-06-01 02:40:00,71.1,60.8,30.04,SE,135,1.0,5.0,70,0.02,,---,0.02,VWS V14.01,2013-06-01 07:40:00,
2013-06-01 02:50:00,71.1,61.6,30.06,West,270,4.0,11.0,72,0.03,,---,0.03,VWS V14.01,2013-06-01 07:50:00,
2013-06-01 03:00:00,70.8,62.1,30.09,WNW,292,4.0,14.0,74,0.04,,---,0.04,VWS V14.01,2013-06-01 08:00:00,
2013-06-01 03:10:00,70.1,62.2,30.09,SW,225,6.0,12.0,76,0.05,,---,0.05,VWS V14.01,2013-06-01 08:10:00,
2013-06-01 03:20:00,69.6,62.8,30.13,SSW,202,7.0,17.0,79,0.05,,---,0.05,VWS V14.01,2013-06-01 08:20:00,
2013-06-01 03:30:00,69.1,62.7,30.13,SW,225,4.0,11.0,80,0.06,,---,0.06,VWS V14.01,2013-06-01 08:30:00,
2013-06-01 03:40:00,68.9,62.5,30.13,South,180,5.0,14.0,80,0.05,,---,0.06,VWS V14.01,2013-06-01 08:40:00,
2013-06-01 03:50:00,68.8,62.7,30.11,South,180,6.0,12.0,81,0.06,,---,0.08,VWS V14.01,2013-06-01 08:50:00,
2013-06-01 04:00:00,68.3,62.6,30.06,SSE,158,6.0,13.0,82,0.07,,---,0.10,VWS V14.01,2013-06-01 09:00:00,
2013-06-01 04:10:00,67.9,62.5,30.06,South,180,3.0,9.0,83,0.07,,---,0.11,VWS V14.01,2013-06-01 09:10:00,
2013-06-01 04:20:00,67.6,62.3,30.06,South,180,3.0,10.0,83,0.07,,---,0.12,VWS V14.01,2013-06-01 09:20:00,
2013-06-01 04:30:00,67.3,62.0,30.05,SSE,158,2.0,11.0,83,0.08,,---,0.13,VWS V14.01,2013-06-01 09:30:00,
2013-06-01 04:40:00,67.3,62.3,30.05,South,180,4.0,9.0,84,0.08,,---,0.14,VWS V14.01,2013-06-01 09:40:00,
2013-06-01 04:50:00,66.9,61.9,30.04,ESE,112,4.0,11.0,84,0.08,,---,0.14,VWS V14.01,2013-06-01 09:50:00,
2013-06-01 05:00:00,66.9,61.9,30.04,ESE,112,1.0,4.0,84,0.07,,---,0.15,VWS V14.01,2013-06-01 10:00:00,
2013-06-01 05:10:00,66.8,61.8,30.04,ESE,112,2.0,6.0,84,0.05,,---,0.15,VWS V14.01,2013-06-01 10:10:00,
2013-06-01 05:20:00,66.6,61.6,30.08,SE,135,2.0,7.0,84,0.05,,---,0.16,VWS V14.01,2013-06-01 10:20:00,
2013-06-01 05:30:00,66.6,62.0,30.16,SE,135,3.0,27.0,85,0.05,,---,0.17,VWS V14.01,2013-06-01 10:30:00,
2013-06-01 05:40:00,66.6,62.0,30.16,NW,315,9.0,20.0,85,0.05,,---,0.18,VWS V14.01,2013-06-01 10:40:00,
2013-06-01 05:50:00,66.4,62.1,30.15,NNW,338,7.0,15.0,86,0.06,,---,0.20,VWS V14.01,2013-06-01 10:50:00,
2013-06-01 06:00:00,66.4,62.4,30.15,NNW,338,4.0,10.0,87,0.08,,---,0.22,VWS V14.01,2013-06-01 11:00:00,
2013-06-01 06:10:00,66.4,62.4,30.15,ENE,68,4.0,8.0,87,0.09,,---,0.24,VWS V14.01,2013-06-01 11:10:00,
2013-06-01 06:20:00,66.4,62.7,30.15,SE,135,3.0,6.0,88,0.10,,---,0.25,VWS V14.01,2013-06-01 11:20:00,
2013-06-01 06:30:00,66.4,63.1,30.13,ESE,112,5.0,9.0,89,0.11,,---,0.27,VWS V14.01,2013-06-01 11:30:00,
2013-06-01 06:40:00,66.3,63.0,30.13,SSE,158,5.0,11.0,89,0.11,,---,0.28,VWS V14.01,2013-06-01 11:40:00,
2013-06-01 06:50:00,66.1,63.1,30.13,ESE,112,2.0,6.0,90,0.12,,---,0.30,VWS V14.01,2013-06-01 11:50:00,
2013-06-01 07:00:00,66.1,63.1,30.17,North,0,3.0,10.0,90,0.12,,---,0.32,VWS V14.01,2013-06-01 12:00:00,
2013-06-01 07:10:00,66.1,63.1,30.17,NNW,338,3.0,9.0,90,0.11,,---,0.33,VWS V14.01,2013-06-01 12:10:00,
2013-06-01 07:20:00,66.1,63.1,30.15,East,90,3.0,9.0,90,0.11,,---,0.35,VWS V14.01,2013-06-01 12:20:00,
2013-06-01 07:30:00,66.0,63.3,30.09,SE,135,6.0,13.0,91,0.11,,---,0.36,VWS V14.01,2013-06-01 12:30:00,
2013-06-01 07:40:00,65.8,63.1,30.09,SE,135,6.0,16.0,91,0.09,,---,0.36,VWS V14.01,2013-06-01 12:40:00,
2013-06-01 07:50:00,65.8,63.1,30.12,North,0,4.0,12.0,91,0.09,,---,0.37,VWS V14.01,2013-06-01 12:50:00,
2013-06-01 08:00:00,65.8,63.1,30.17,ENE,68,7.0,14.0,91,0.07,,---,0.37,VWS V14.01,2013-06-01 13:00:00,
2013-06-01 08:10:00,65.6,63.2,30.17,NW,315,3.0,10.0,92,0.06,,---,0.38,VWS V14.01,2013-06-01 13:10:00,
2013-06-01 08:20:00,65.6,63.2,30.15,NNW,338,4.0,11.0,92,0.05,,---,0.38,VWS V14.01,2013-06-01 13:20:00,
2013-06-01 08:30:00,65.6,63.2,30.12,ENE,68,4.0,9.0,92,0.03,,---,0.38,VWS V14.01,2013-06-01 13:30:00,
2013-06-01 08:40:00,65.6,63.2,30.12,NW,315,1.0,5.0,92,0.02,,---,0.38,VWS V14.01,2013-06-01 13:40:00,
2013-06-01 08:50:00,65.6,63.2,30.12,SE,135,2.0,6.0,92,0.02,,---,0.38,VWS V14.01,2013-06-01 13:50:00,
2013-06-01 09:00:00,65.6,63.2,30.12,SE,135,3.0,12.0,92,0.01,,---,0.38,VWS V14.01,2013-06-01 14:00:00,
2013-06-01 09:10:00,65.5,63.1,30.12,South,180,7.0,17.0,92,0.01,,---,0.38,VWS V14.01,2013-06-01 14:10:00,
2013-06-01 09:20:00,65.3,62.9,30.12,South,180,1.0,4.0,92,0.00,,---,0.38,VWS V14.01,2013-06-01 14:20:00,
2013-06-01 09:30:00,65.3,62.9,30.14,South,180,1.0,4.0,92,0.00,,---,0.38,VWS V14.01,2013-06-01 14:30:00,
2013-06-01 09:40:00,65.3,62.9,30.14,South,180,2.0,4.0,92,0.00,,---,0.38,VWS V14.01,2013-06-01 14:40:00,
2013-06-01 09:50:00,65.5,63.1,30.15,WSW,248,2.0,5.0,92,0.00,,---,0.38,VWS V14.01,2013-06-01 14:50:00,
2013-06-01 10:00:00,65.5,63.1,30.19,WSW,248,3.0,7.0,92,0.00,,---,0.38,VWS V14.01,2013-06-01 15:00:00,
2013-06-01 10:10:00,65.6,63.2,30.19,NW,315,3.0,9.0,92,0.00,,---,0.38,VWS V14.01,2013-06-01 15:10:00,
2013-06-01 10:20:00,65.6,63.2,30.19,NW,315,5.0,10.0,92,0.00,,---,0.38,VWS V14.01,2013-06-01 15:20:00,
2013-06-01 10:30:00,65.5,63.1,30.20,WNW,292,4.0,7.0,92,0.00,,---,0.38,VWS V14.01,2013-06-01 15:30:00,
2013-06-01 10:40:00,65.6,63.5,30.20,WNW,292,3.0,6.0,93,0.00,,---,0.38,VWS V14.01,2013-06-01 15:40:00,
2013-06-01 10:50:00,65.6,63.5,30.21,NW,315,4.0,9.0,93,0.00,,---,0.38,VWS V14.01,2013-06-01 15:50:00,
2013-06-01 11:00:00,65.6,63.5,30.23,WNW,292,4.0,7.0,93,0.00,,---,0.38,VWS V14.01,2013-06-01 16:00:00,
2013-06-01 11:10:00,65.6,63.5,30.23,WNW,292,3.0,8.0,93,0.00,,---,0.38,VWS V14.01,2013-06-01 16:10:00,
2013-06-01 11:20:00,65.6,63.5,30.22,WNW,292,4.0,7.0,93,0.00,,---,0.38,VWS V14.01,2013-06-01 16:20:00,
2013-06-01 11:30:00,65.6,63.5,30.23,WNW,292,3.0,6.0,93,0.00,,---,0.38,VWS V14.01,2013-06-01 16:30:00,
2013-06-01 11:40:00,65.8,63.7,30.23,WNW,292,3.0,6.0,93,0.00,,---,0.38,VWS V14.01,2013-06-01 16:40:00,
2013-06-01 11:50:00,66.0,63.9,30.24,WNW,292,3.0,6.0,93,0.00,,---,0.38,VWS V14.01,2013-06-01 16:50:00,
2013-06-01 12:00:00,66.1,64.0,30.24,West,270,3.0,7.0,93,0.00,,---,0.38,VWS V14.01,2013-06-01 17:00:00,
2013-06-01 12:10:00,66.1,64.0,30.24,West,270,3.0,6.0,93,0.00,,---,0.38,VWS V14.01,2013-06-01 17:10:00,
2013-06-01 12:20:00,66.3,64.2,30.24,West,270,3.0,5.0,93,0.00,,---,0.38,VWS V14.01,2013-06-01 17:20:00,
2013-06-01 12:30:00,66.3,64.2,30.23,WNW,292,3.0,6.0,93,0.00,,---,0.38,VWS V14.01,2013-06-01 17:30:00,
2013-06-01 12:40:00,66.3,64.2,30.23,WNW,292,4.0,9.0,93,0.00,,---,0.38,VWS V14.01,2013-06-01 17:40:00,
2013-06-01 12:50:00,66.0,63.9,30.24,WNW,292,3.0,6.0,93,0.00,,---,0.38,VWS V14.01,2013-06-01 17:50:00,
2013-06-01 12:52:00,66.3,64.2,30.24,West,280,3.0,4.0,93,0.00,,---,0.38,VWS V14.01,2013-06-01 17:52:00,
2013-06-01 12:57:00,66.4,64.3,30.24,WNW,292,2.0,6.0,93,0.00,,---,0.38,VWS V14.01,2013-06-01 17:57:00,
2013-06-01 13:00:00,66.8,64.7,30.24,WNW,289,2.0,6.0,93,0.00,,---,0.38,VWS V14.01,2013-06-01 18:00:00,
2013-06-01 13:02:00,67.1,65.0,30.24,WNW,288,1.0,5.0,93,0.00,,---,0.38,VWS V14.01,2013-06-01 18:02:00,
2013-06-01 13:07:00,67.3,65.2,30.24,WNW,284,3.0,7.0,93,0.00,,---,0.38,VWS V14.01,2013-06-01 18:07:00,
2013-06-01 13:10:00,66.9,64.5,30.24,West,274,5.0,7.0,92,0.00,,---,0.38,VWS V14.01,2013-06-01 18:10:00,
2013-06-01 13:12:00,66.9,64.5,30.24,WNW,290,4.0,7.0,92,0.00,,---,0.38,VWS V14.01,2013-06-01 18:12:00,
2013-06-01 13:17:00,67.3,64.9,30.25,West,274,4.0,7.0,92,0.00,,---,0.38,VWS V14.01,2013-06-01 18:17:00,
2013-06-01 13:20:00,67.3,64.6,30.25,WNW,294,4.0,7.0,91,0.00,,---,0.38,VWS V14.01,2013-06-01 18:20:00,
2013-06-01 13:22:00,67.1,64.4,30.25,West,266,7.0,8.0,91,0.00,,---,0.38,VWS V14.01,2013-06-01 18:22:00,
2013-06-01 13:27:00,67.1,64.4,30.25,West,266,4.0,9.0,91,0.00,,---,0.38,VWS V14.01,2013-06-01 18:27:00,
2013-06-01 13:30:00,67.6,64.9,30.25,West,266,0.0,9.0,91,0.00,,---,0.38,VWS V14.01,2013-06-01 18:30:00,
2013-06-01 13:32:00,67.9,65.2,30.25,WSW,240,6.0,7.0,91,0.00,,---,0.38,VWS V14.01,2013-06-01 18:32:00,
2013-06-01 13:37:00,68.4,65.4,30.25,SW,221,4.0,7.0,90,0.00,,---,0.38,VWS V14.01,2013-06-01 18:37:00,
2013-06-01 13:40:00,69.1,65.7,30.25,SW,223,4.0,8.0,89,0.00,,---,0.38,VWS V14.01,2013-06-01 18:40:00,
2013-06-01 13:42:00,68.9,65.2,30.25,West,264,4.0,5.0,88,0.00,,---,0.38,VWS V14.01,2013-06-01 18:42:00,
2013-06-01 13:47:00,69.3,65.3,30.24,West,259,3.0,7.0,87,0.00,,---,0.38,VWS V14.01,2013-06-01 18:47:00,
2013-06-01 13:50:00,69.1,64.4,30.24,NW,304,4.0,7.0,85,0.00,,---,0.38,VWS V14.01,2013-06-01 18:50:00,
2013-06-01 13:52:00,68.9,64.2,30.24,WSW,247,5.0,6.0,85,0.00,,---,0.38,VWS V14.01,2013-06-01 18:52:00,
2013-06-01 13:57:00,69.8,65.1,30.24,SW,218,5.0,8.0,85,0.00,,---,0.38,VWS V14.01,2013-06-01 18:57:00,
2013-06-01 14:00:00,69.9,64.8,30.24,SW,235,3.0,8.0,84,0.00,,---,0.38,VWS V14.01,2013-06-01 19:00:00,
2013-06-01 14:02:00,69.6,64.2,30.24,SW,235,0.0,5.0,83,0.00,,---,0.38,VWS V14.01,2013-06-01 19:02:00,
2013-06-01 14:07:00,69.9,64.8,30.24,South,190,3.0,6.0,84,0.00,,---,0.38,VWS V14.01,2013-06-01 19:07:00,
2013-06-01 14:10:00,69.8,64.4,30.24,WSW,252,4.0,6.0,83,0.00,,---,0.38,VWS V14.01,2013-06-01 19:10:00,
2013-06-01 14:12:00,69.8,64.4,30.24,WSW,251,4.0,4.0,83,0.00,,---,0.38,VWS V14.01,2013-06-01 19:12:00,
2013-06-01 14:17:00,69.8,64.1,30.24,WSW,245,0.0,5.0,82,0.00,,---,0.38,VWS V14.01,2013-06-01 19:17:00,
2013-06-01 14:20:00,69.6,63.9,30.24,WSW,245,0.0,5.0,82,0.00,,---,0.38,VWS V14.01,2013-06-01 19:20:00,
2013-06-01 14:22:00,69.8,64.4,30.24,WSW,245,1.0,2.0,83,0.00,,---,0.38,VWS V14.01,2013-06-01 19:22:00,
2013-06-01 14:27:00,69.9,64.5,30.24,WSW,245,0.0,4.0,83,0.00,,---,0.38,VWS V14.01,2013-06-01 19:27:00,
2013-06-01 14:30:00,70.4,64.3,30.24,West,261,0.0,4.0,81,0.00,,---,0.38,VWS V14.01,2013-06-01 19:30:00,
2013-06-01 14:32:00,70.6,64.8,30.24,SW,229,3.0,3.0,82,0.00,,---,0.38,VWS V14.01,2013-06-01 19:32:00,
2013-06-01 14:37:00,71.6,65.8,30.24,WSW,248,3.0,5.0,82,0.00,,---,0.38,VWS V14.01,2013-06-01 19:37:00,
2013-06-01 14:40:00,72.1,65.6,30.24,SW,227,5.0,8.0,80,0.00,,---,0.38,VWS V14.01,2013-06-01 19:40:00,
2013-06-01 14:42:00,71.8,64.6,30.24,WSW,240,1.0,6.0,78,0.00,,---,0.38,VWS V14.01,2013-06-01 19:42:00,
2013-06-01 14:47:00,72.1,64.9,30.22,SSW,211,5.0,6.0,78,0.00,,---,0.38,VWS V14.01,2013-06-01 19:47:00,
2013-06-01 14:50:00,72.5,65.3,30.22,WSW,247,4.0,9.0,78,0.00,,---,0.38,VWS V14.01,2013-06-01 19:50:00,
2013-06-01 14:52:00,72.5,65.3,30.22,SW,232,5.0,7.0,78,0.00,,---,0.38,VWS V14.01,2013-06-01 19:52:00,
2013-06-01 14:57:00,73.0,65.4,30.22,SSW,205,5.0,10.0,77,0.00,,---,0.38,VWS V14.01,2013-06-01 19:57:00,
2013-06-01 15:00:00,73.0,65.4,30.22,SW,223,5.0,10.0,77,0.00,,---,0.38,VWS V14.01,2013-06-01 20:00:00,
2013-06-01 15:02:00,73.2,64.8,30.22,WSW,239,4.0,7.0,75,0.00,,---,0.38,VWS V14.01,2013-06-01 20:02:00,
2013-06-01 15:07:00,73.5,65.1,30.22,SW,216,0.0,7.0,75,0.00,,---,0.38,VWS V14.01,2013-06-01 20:07:00,
2013-06-01 15:10:00,73.9,65.5,30.22,West,261,5.0,7.0,75,0.00,,---,0.38,VWS V14.01,2013-06-01 20:10:00,
2013-06-01 15:12:00,73.5,63.9,30.22,WSW,249,5.0,6.0,72,0.00,,---,0.38,VWS V14.01,2013-06-01 20:12:00,
2013-06-01 15:17:00,74.0,65.6,30.22,South,178,2.0,7.0,75,0.00,,---,0.38,VWS V14.01,2013-06-01 20:17:00,
2013-06-01 15:20:00,74.2,64.6,30.22,SSW,196,4.0,7.0,72,0.00,,---,0.38,VWS V14.01,2013-06-01 20:20:00,
2013-06-01 15:22:00,74.2,64.6,30.22,WSW,250,8.0,8.0,72,0.00,,---,0.38,VWS V14.01,2013-06-01 20:22:00,
2013-06-01 15:27:00,74.2,63.4,30.22,West,274,0.0,9.0,69,0.00,,---,0.38,VWS V14.01,2013-06-01 20:27:00,
2013-06-01 15:30:00,74.4,63.6,30.23,West,261,4.0,9.0,69,0.00,,---,0.38,VWS V14.01,2013-06-01 20:30:00,
2013-06-01 15:32:00,74.0,63.2,30.23,West,261,0.0,4.0,69,0.00,,---,0.38,VWS V14.01,2013-06-01 20:32:00,
2013-06-01 15:37:00,74.6,64.2,30.23,NW,306,4.0,9.0,70,0.00,,---,0.38,VWS V14.01,2013-06-01 20:37:00,
2013-06-01 15:40:00,74.6,63.3,30.23,West,269,5.0,9.0,68,0.00,,---,0.38,VWS V14.01,2013-06-01 20:40:00,
2013-06-01 15:42:00,74.2,62.1,30.23,West,270,3.0,5.0,66,0.00,,---,0.38,VWS V14.01,2013-06-01 20:42:00,
2013-06-01 15:47:00,74.0,62.8,30.23,SW,231,0.0,6.0,68,0.00,,---,0.38,VWS V14.01,2013-06-01 20:47:00,
2013-06-01 15:50:00,73.7,63.7,30.23,WSW,241,2.0,6.0,71,0.00,,---,0.38,VWS V14.01,2013-06-01 20:50:00,
2013-06-01 15:52:00,74.2,64.2,30.23,WSW,246,6.0,6.0,71,0.00,,---,0.38,VWS V14.01,2013-06-01 20:52:00,
2013-06-01 15:57:00,74.7,63.0,30.23,SW,227,4.0,6.0,67,0.00,,---,0.38,VWS V14.01,2013-06-01 20:57:00,
2013-06-01 16:00:00,74.6,63.3,30.23,WSW,245,6.0,6.0,68,0.00,,---,0.38,VWS V14.01,2013-06-01 21:00:00,
2013-06-01 16:02:00,75.1,63.8,30.23,West,276,4.0,7.0,68,0.00,,---,0.38,VWS V14.01,2013-06-01 21:02:00,
2013-06-01 16:07:00,75.1,63.0,30.23,WNW,291,3.0,9.0,66,0.00,,---,0.38,VWS V14.01,2013-06-01 21:07:00,
2013-06-01 16:10:00,75.1,63.0,30.23,West,279,3.0,9.0,66,0.00,,---,0.38,VWS V14.01,2013-06-01 21:10:00,
2013-06-01 16:12:00,75.3,63.6,30.23,NW,304,4.0,5.0,67,0.00,,---,0.38,VWS V14.01,2013-06-01 21:12:00,
2013-06-01 16:17:00,75.4,64.1,30.22,West,269,6.0,7.0,68,0.00,,---,0.38,VWS V14.01,2013-06-01 21:17:00,
2013-06-01 16:20:00,74.9,62.3,30.22,WNW,288,2.0,7.0,65,0.00,,---,0.38,VWS V14.01,2013-06-01 21:20:00,
2013-06-01 16:22:00,74.9,62.8,30.22,WNW,286,1.0,5.0,66,0.00,,---,0.38,VWS V14.01,2013-06-01 21:22:00,
2013-06-01 16:27:00,75.8,63.6,30.22,NW,310,5.0,9.0,66,0.00,,---,0.38,VWS V14.01,2013-06-01 21:27:00,
2013-06-01 16:30:00,75.8,63.6,30.22,NNW,331,5.0,9.0,66,0.00,,---,0.38,VWS V14.01,2013-06-01 21:30:00,
2013-06-01 16:32:00,76.0,63.8,30.22,WNW,282,5.0,7.0,66,0.00,,---,0.38,VWS V14.01,2013-06-01 21:32:00,
2013-06-01 16:37:00,76.0,63.8,30.22,NW,315,2.0,7.0,66,0.00,,---,0.38,VWS V14.01,2013-06-01 21:37:00,
2013-06-01 16:40:00,75.3,63.2,30.22,NW,325,5.0,7.0,66,0.00,,---,0.38,VWS V14.01,2013-06-01 21:40:00,
2013-06-01 16:42:00,75.3,63.2,30.22,NW,325,3.0,5.0,66,0.00,,---,0.38,VWS V14.01,2013-06-01 21:42:00,
2013-06-01 16:47:00,75.4,63.3,30.22,NW,307,2.0,5.0,66,0.00,,---,0.38,VWS V14.01,2013-06-01 21:47:00,
2013-06-01 16:50:00,75.8,63.6,30.22,NW,325,5.0,6.0,66,0.00,,---,0.38,VWS V14.01,2013-06-01 21:50:00,
2013-06-01 16:52:00,76.1,63.5,30.22,NNW,329,3.0,9.0,65,0.00,,---,0.38,VWS V14.01,2013-06-01 21:52:00,
2013-06-01 16:57:00,76.7,63.2,30.22,NW,313,5.0,10.0,63,0.00,,---,0.38,VWS V14.01,2013-06-01 21:57:00,
2013-06-01 17:00:00,76.3,62.8,30.22,NW,316,0.0,10.0,63,0.00,,---,0.38,VWS V14.01,2013-06-01 22:00:00,
2013-06-01 17:02:00,76.3,63.7,30.22,NW,319,5.0,6.0,65,0.00,,---,0.38,VWS V14.01,2013-06-01 22:02:00,
2013-06-01 17:07:00,76.8,64.6,30.22,West,267,1.0,6.0,66,0.00,,---,0.38,VWS V14.01,2013-06-01 22:07:00,
2013-06-01 17:10:00,77.2,63.6,30.22,WNW,286,4.0,7.0,63,0.00,,---,0.38,VWS V14.01,2013-06-01 22:10:00,
2013-06-01 17:12:00,77.0,63.0,30.22,WNW,297,7.0,10.0,62,0.00,,---,0.38,VWS V14.01,2013-06-01 22:12:00,
2013-06-01 17:17:00,76.7,62.2,30.22,West,274,9.0,11.0,61,0.00,,---,0.38,VWS V14.01,2013-06-01 22:17:00,
2013-06-01 17:20:00,76.1,61.7,30.22,NW,305,5.0,11.0,61,0.00,,---,0.38,VWS V14.01,2013-06-01 22:20:00,
2013-06-01 17:22:00,75.8,61.4,30.22,NW,306,5.0,6.0,61,0.00,,---,0.38,VWS V14.01,2013-06-01 22:22:00,
2013-06-01 17:27:00,75.3,62.3,30.22,WNW,297,4.0,10.0,64,0.00,,---,0.38,VWS V14.01,2013-06-01 22:27:00,
2013-06-01 17:30:00,75.6,63.0,30.23,NW,306,6.0,10.0,65,0.00,,---,0.38,VWS V14.01,2013-06-01 22:30:00,
2013-06-01 17:32:00,75.6,62.6,30.23,NW,309,3.0,6.0,64,0.00,,---,0.38,VWS V14.01,2013-06-01 22:32:00,
2013-06-01 17:40:00,75.3,63.2,30.22,NW,325,5.0,7.0,66,0.00,,---,0.38,VWS V14.01,2013-06-01 22:40:00,
2013-06-01 17:50:00,75.8,63.6,30.22,NW,325,5.0,6.0,66,0.00,,---,0.38,VWS V14.01,2013-06-01 22:50:00,
2013-06-01 18:00:00,76.3,62.8,30.22,NW,316,0.0,10.0,63,0.00,,---,0.38,VWS V14.01,2013-06-01 23:00:00,
2013-06-01 18:10:00,77.2,63.6,30.22,WNW,286,4.0,7.0,63,0.00,,---,0.38,VWS V14.01,2013-06-01 23:10:00,
2013-06-01 18:20:00,76.1,61.7,30.22,NW,305,5.0,11.0,61,0.00,,---,0.38,VWS V14.01,2013-06-01 23:20:00,
2013-06-01 18:30:00,75.6,63.0,30.23,NW,306,6.0,10.0,65,0.00,,---,0.38,VWS V14.01,2013-06-01 23:30:00,